sensor_id;sensor_type;location;lat;lon;timestamp;temperature;humidity
32839;DHT22;19182;41.820;12.808;2023-02-19T00:01:38;7.70;99.90
32839;DHT22;19182;41.820;12.808;2023-02-19T00:06:36;7.80;99.90
32839;DHT22;19182;41.820;12.808;2023-02-19T00:09:05;7.80;99.90
32839;DHT22;19182;41.820;12.808;2023-02-19T00:11:32;7.80;99.90
32839;DHT22;19182;41.820;12.808;2023-02-19T00:13:59;7.80;99.90
32839;DHT22;19182;41.820;12.808;2023-02-19T00:16:39;7.90;99.90
32839;DHT22;19182;41.820;12.808;2023-02-19T00:19:10;7.90;99.90
32839;DHT22;19182;41.820;12.808;2023-02-19T00:21:36;7.90;99.90
32839;DHT22;19182;41.820;12.808;2023-02-19T00:24:04;8.00;99.90
32839;DHT22;19182;41.820;12.808;2023-02-19T00:26:31;8.00;99.90
32839;DHT22;19182;41.820;12.808;2023-02-19T00:28:57;8.00;99.90
32839;DHT22;19182;41.820;12.808;2023-02-19T00:31:32;8.10;99.90
32839;DHT22;19182;41.820;12.808;2023-02-19T00:34:02;8.10;99.90
32839;DHT22;19182;41.820;12.808;2023-02-19T00:36:29;8.10;99.90
32839;DHT22;19182;41.820;12.808;2023-02-19T00:38:55;8.00;99.90
32839;DHT22;19182;41.820;12.808;2023-02-19T00:41:24;7.90;99.90
32839;DHT22;19182;41.820;12.808;2023-02-19T00:43:58;7.80;99.90
32839;DHT22;19182;41.820;12.808;2023-02-19T00:46:31;8.10;99.90
32839;DHT22;19182;41.820;12.808;2023-02-19T00:48:57;8.10;99.90
32839;DHT22;19182;41.820;12.808;2023-02-19T00:51:27;8.10;99.90
32839;DHT22;19182;41.820;12.808;2023-02-19T00:53:53;8.10;99.90
32839;DHT22;19182;41.820;12.808;2023-02-19T00:56:19;7.10;99.90
32839;DHT22;19182;41.820;12.808;2023-02-19T00:58:45;8.10;99.90
32839;DHT22;19182;41.820;12.808;2023-02-19T01:01:11;8.10;99.90
32839;DHT22;19182;41.820;12.808;2023-02-19T01:03:38;8.20;99.90
32839;DHT22;19182;41.820;12.808;2023-02-19T01:06:05;8.20;99.90
32839;DHT22;19182;41.820;12.808;2023-02-19T01:08:31;8.20;99.90
32839;DHT22;19182;41.820;12.808;2023-02-19T01:10:58;8.20;99.90
32839;DHT22;19182;41.820;12.808;2023-02-19T01:13:25;8.10;99.90
32839;DHT22;19182;41.820;12.808;2023-02-19T01:15:52;8.20;99.90
32839;DHT22;19182;41.820;12.808;2023-02-19T01:18:19;8.20;99.90
32839;DHT22;19182;41.820;12.808;2023-02-19T01:20:45;8.10;99.90
32839;DHT22;19182;41.820;12.808;2023-02-19T01:23:12;8.20;99.90
32839;DHT22;19182;41.820;12.808;2023-02-19T01:25:40;8.30;99.90
32839;DHT22;19182;41.820;12.808;2023-02-19T01:28:07;8.30;99.90
32839;DHT22;19182;41.820;12.808;2023-02-19T01:30:37;8.30;99.90
32839;DHT22;19182;41.820;12.808;2023-02-19T01:33:07;8.30;99.90
32839;DHT22;19182;41.820;12.808;2023-02-19T01:35:36;8.30;99.90
32839;DHT22;19182;41.820;12.808;2023-02-19T01:38:02;8.20;99.90
32839;DHT22;19182;41.820;12.808;2023-02-19T01:40:28;8.30;99.90
32839;DHT22;19182;41.820;12.808;2023-02-19T01:42:54;8.30;99.90
32839;DHT22;19182;41.820;12.808;2023-02-19T01:45:36;9.10;99.90
32839;DHT22;19182;41.820;12.808;2023-02-19T01:48:11;8.20;99.90
32839;DHT22;19182;41.820;12.808;2023-02-19T01:51:06;8.20;99.90
32839;DHT22;19182;41.820;12.808;2023-02-19T01:53:36;8.20;99.90
32839;DHT22;19182;41.820;12.808;2023-02-19T01:56:04;8.30;99.90
32839;DHT22;19182;41.820;12.808;2023-02-19T01:58:33;8.30;99.90
32839;DHT22;19182;41.820;12.808;2023-02-19T02:01:01;8.30;99.90
32839;DHT22;19182;41.820;12.808;2023-02-19T02:03:27;8.20;99.90
32839;DHT22;19182;41.820;12.808;2023-02-19T02:08:52;8.20;99.90
32839;DHT22;19182;41.820;12.808;2023-02-19T02:11:41;8.20;99.90
32839;DHT22;19182;41.820;12.808;2023-02-19T02:14:09;8.20;99.90
32839;DHT22;19182;41.820;12.808;2023-02-19T02:16:48;8.20;99.90
32839;DHT22;19182;41.820;12.808;2023-02-19T02:19:44;8.20;99.90
32839;DHT22;19182;41.820;12.808;2023-02-19T02:22:20;8.30;99.90
32839;DHT22;19182;41.820;12.808;2023-02-19T02:30:46;8.30;99.90
32839;DHT22;19182;41.820;12.808;2023-02-19T02:33:31;8.30;99.90
32839;DHT22;19182;41.820;12.808;2023-02-19T02:36:12;8.40;99.90
32839;DHT22;19182;41.820;12.808;2023-02-19T02:38:39;8.40;99.90
32839;DHT22;19182;41.820;12.808;2023-02-19T02:41:06;8.40;99.90
32839;DHT22;19182;41.820;12.808;2023-02-19T02:43:32;8.40;99.90
32839;DHT22;19182;41.820;12.808;2023-02-19T02:45:59;8.40;99.90
32839;DHT22;19182;41.820;12.808;2023-02-19T02:51:23;8.40;99.90
32839;DHT22;19182;41.820;12.808;2023-02-19T02:54:22;8.40;99.90
32839;DHT22;19182;41.820;12.808;2023-02-19T02:57:08;8.30;99.90
32839;DHT22;19182;41.820;12.808;2023-02-19T02:59:40;8.30;99.90
32839;DHT22;19182;41.820;12.808;2023-02-19T03:02:12;8.30;99.90
32839;DHT22;19182;41.820;12.808;2023-02-19T03:05:05;8.30;99.90
32839;DHT22;19182;41.820;12.808;2023-02-19T03:08:15;8.30;99.90
32839;DHT22;19182;41.820;12.808;2023-02-19T03:13:29;8.40;99.90
32839;DHT22;19182;41.820;12.808;2023-02-19T03:16:21;8.50;99.90
32839;DHT22;19182;41.820;12.808;2023-02-19T03:19:12;8.40;99.90
32839;DHT22;19182;41.820;12.808;2023-02-19T03:22:08;8.40;99.90
32839;DHT22;19182;41.820;12.808;2023-02-19T03:24:40;8.50;99.90
32839;DHT22;19182;41.820;12.808;2023-02-19T03:27:26;8.50;99.90
32839;DHT22;19182;41.820;12.808;2023-02-19T03:29:56;8.50;99.90
32839;DHT22;19182;41.820;12.808;2023-02-19T03:32:29;8.40;99.90
32839;DHT22;19182;41.820;12.808;2023-02-19T03:35:02;8.40;99.90
32839;DHT22;19182;41.820;12.808;2023-02-19T03:37:42;8.40;99.90
32839;DHT22;19182;41.820;12.808;2023-02-19T03:40:10;8.40;99.90
32839;DHT22;19182;41.820;12.808;2023-02-19T03:42:48;8.40;99.90
32839;DHT22;19182;41.820;12.808;2023-02-19T03:48:24;8.40;99.90
32839;DHT22;19182;41.820;12.808;2023-02-19T03:56:33;8.50;99.90
32839;DHT22;19182;41.820;12.808;2023-02-19T03:59:49;8.50;99.90
32839;DHT22;19182;41.820;12.808;2023-02-19T04:02:43;8.50;99.90
32839;DHT22;19182;41.820;12.808;2023-02-19T04:05:19;8.40;99.90
32839;DHT22;19182;41.820;12.808;2023-02-19T04:07:46;8.50;99.90
32839;DHT22;19182;41.820;12.808;2023-02-19T04:10:15;8.40;99.90
32839;DHT22;19182;41.820;12.808;2023-02-19T04:12:47;8.40;99.90
32839;DHT22;19182;41.820;12.808;2023-02-19T04:15:18;8.40;99.90
32839;DHT22;19182;41.820;12.808;2023-02-19T04:17:59;8.50;99.90
32839;DHT22;19182;41.820;12.808;2023-02-19T04:20:26;8.50;99.90
32839;DHT22;19182;41.820;12.808;2023-02-19T04:22:56;8.50;99.90
32839;DHT22;19182;41.820;12.808;2023-02-19T04:25:26;8.50;99.90
32839;DHT22;19182;41.820;12.808;2023-02-19T04:27:53;8.40;99.90
32839;DHT22;19182;41.820;12.808;2023-02-19T04:30:20;8.40;99.90
32839;DHT22;19182;41.820;12.808;2023-02-19T04:32:47;8.40;99.90
32839;DHT22;19182;41.820;12.808;2023-02-19T04:35:14;8.40;99.90
32839;DHT22;19182;41.820;12.808;2023-02-19T04:37:39;8.40;99.90
32839;DHT22;19182;41.820;12.808;2023-02-19T04:40:06;8.40;99.90
32839;DHT22;19182;41.820;12.808;2023-02-19T04:42:33;8.40;99.90
32839;DHT22;19182;41.820;12.808;2023-02-19T04:44:59;8.40;99.90
32839;DHT22;19182;41.820;12.808;2023-02-19T04:47:25;8.40;99.90
32839;DHT22;19182;41.820;12.808;2023-02-19T04:49:51;8.30;99.90
32839;DHT22;19182;41.820;12.808;2023-02-19T04:52:18;8.40;99.90
32839;DHT22;19182;41.820;12.808;2023-02-19T04:54:45;8.40;99.90
32839;DHT22;19182;41.820;12.808;2023-02-19T04:57:10;8.40;99.90
32839;DHT22;19182;41.820;12.808;2023-02-19T04:59:37;8.50;99.90
32839;DHT22;19182;41.820;12.808;2023-02-19T05:02:04;8.50;99.90
32839;DHT22;19182;41.820;12.808;2023-02-19T05:04:30;8.40;99.90
32839;DHT22;19182;41.820;12.808;2023-02-19T05:06:56;8.40;99.90
32839;DHT22;19182;41.820;12.808;2023-02-19T05:09:23;8.40;99.90
32839;DHT22;19182;41.820;12.808;2023-02-19T05:11:48;8.40;99.90
32839;DHT22;19182;41.820;12.808;2023-02-19T05:14:15;8.40;99.90
32839;DHT22;19182;41.820;12.808;2023-02-19T05:16:42;8.30;99.90
32839;DHT22;19182;41.820;12.808;2023-02-19T05:19:11;8.30;99.90
32839;DHT22;19182;41.820;12.808;2023-02-19T05:21:37;8.40;99.90
32839;DHT22;19182;41.820;12.808;2023-02-19T05:24:05;8.40;99.90
32839;DHT22;19182;41.820;12.808;2023-02-19T05:26:32;8.40;99.90
32839;DHT22;19182;41.820;12.808;2023-02-19T05:29:00;8.30;99.90
32839;DHT22;19182;41.820;12.808;2023-02-19T05:31:26;8.30;99.90
32839;DHT22;19182;41.820;12.808;2023-02-19T05:33:54;8.30;99.90
32839;DHT22;19182;41.820;12.808;2023-02-19T05:36:21;9.30;99.90
32839;DHT22;19182;41.820;12.808;2023-02-19T05:38:54;8.30;99.90
32839;DHT22;19182;41.820;12.808;2023-02-19T05:41:23;8.20;99.90
32839;DHT22;19182;41.820;12.808;2023-02-19T05:43:50;8.20;99.90
32839;DHT22;19182;41.820;12.808;2023-02-19T05:46:18;8.20;99.90
32839;DHT22;19182;41.820;12.808;2023-02-19T05:48:46;8.30;99.90
32839;DHT22;19182;41.820;12.808;2023-02-19T05:51:15;8.30;99.90
32839;DHT22;19182;41.820;12.808;2023-02-19T05:53:42;8.30;99.90
32839;DHT22;19182;41.820;12.808;2023-02-19T05:58:49;8.20;99.90
32839;DHT22;19182;41.820;12.808;2023-02-19T06:01:15;8.20;99.90
32839;DHT22;19182;41.820;12.808;2023-02-19T06:03:41;8.20;99.90
32839;DHT22;19182;41.820;12.808;2023-02-19T06:06:08;8.20;99.90
32839;DHT22;19182;41.820;12.808;2023-02-19T06:08:34;8.20;99.90
32839;DHT22;19182;41.820;12.808;2023-02-19T06:11:00;8.20;99.90
32839;DHT22;19182;41.820;12.808;2023-02-19T06:13:26;8.20;99.90
32839;DHT22;19182;41.820;12.808;2023-02-19T06:15:52;8.30;99.90
32839;DHT22;19182;41.820;12.808;2023-02-19T06:18:18;8.30;99.90
32839;DHT22;19182;41.820;12.808;2023-02-19T06:20:44;8.30;99.90
32839;DHT22;19182;41.820;12.808;2023-02-19T06:23:10;8.30;99.90
32839;DHT22;19182;41.820;12.808;2023-02-19T06:25:37;8.30;99.90
32839;DHT22;19182;41.820;12.808;2023-02-19T06:28:03;8.40;99.90
32839;DHT22;19182;41.820;12.808;2023-02-19T06:30:29;8.40;99.90
32839;DHT22;19182;41.820;12.808;2023-02-19T06:32:55;8.40;99.90
32839;DHT22;19182;41.820;12.808;2023-02-19T06:35:21;8.40;99.90
32839;DHT22;19182;41.820;12.808;2023-02-19T06:37:48;8.40;99.90
32839;DHT22;19182;41.820;12.808;2023-02-19T06:40:15;9.00;99.90
32839;DHT22;19182;41.820;12.808;2023-02-19T06:42:42;8.30;99.90
32839;DHT22;19182;41.820;12.808;2023-02-19T06:45:07;8.40;99.90
32839;DHT22;19182;41.820;12.808;2023-02-19T06:47:35;8.40;99.90
32839;DHT22;19182;41.820;12.808;2023-02-19T06:50:00;8.50;99.90
32839;DHT22;19182;41.820;12.808;2023-02-19T06:52:27;8.50;99.90
32839;DHT22;19182;41.820;12.808;2023-02-19T06:54:53;8.60;99.90
32839;DHT22;19182;41.820;12.808;2023-02-19T06:57:19;8.60;99.90
32839;DHT22;19182;41.820;12.808;2023-02-19T06:59:45;8.60;99.90
32839;DHT22;19182;41.820;12.808;2023-02-19T07:02:11;8.70;99.90
32839;DHT22;19182;41.820;12.808;2023-02-19T07:04:38;8.70;99.90
32839;DHT22;19182;41.820;12.808;2023-02-19T07:07:05;8.80;99.90
32839;DHT22;19182;41.820;12.808;2023-02-19T07:09:32;8.80;99.90
32839;DHT22;19182;41.820;12.808;2023-02-19T07:11:58;8.90;99.90
32839;DHT22;19182;41.820;12.808;2023-02-19T07:14:24;9.00;99.90
32839;DHT22;19182;41.820;12.808;2023-02-19T07:16:50;9.10;99.90
32839;DHT22;19182;41.820;12.808;2023-02-19T07:19:15;9.10;99.90
32839;DHT22;19182;41.820;12.808;2023-02-19T07:21:42;9.20;99.90
32839;DHT22;19182;41.820;12.808;2023-02-19T07:24:08;9.30;99.90
32839;DHT22;19182;41.820;12.808;2023-02-19T07:26:35;9.40;99.90
32839;DHT22;19182;41.820;12.808;2023-02-19T07:29:02;9.50;99.90
32839;DHT22;19182;41.820;12.808;2023-02-19T07:31:28;9.60;99.90
32839;DHT22;19182;41.820;12.808;2023-02-19T07:33:55;9.70;99.90
32839;DHT22;19182;41.820;12.808;2023-02-19T07:36:22;9.80;99.90
32839;DHT22;19182;41.820;12.808;2023-02-19T07:38:59;9.90;99.90
32839;DHT22;19182;41.820;12.808;2023-02-19T07:41:28;10.00;99.90
32839;DHT22;19182;41.820;12.808;2023-02-19T07:43:53;10.10;99.90
32839;DHT22;19182;41.820;12.808;2023-02-19T07:46:19;10.10;99.90
32839;DHT22;19182;41.820;12.808;2023-02-19T07:48:45;10.20;99.90
32839;DHT22;19182;41.820;12.808;2023-02-19T07:51:15;10.30;99.90
32839;DHT22;19182;41.820;12.808;2023-02-19T07:53:44;10.30;99.90
32839;DHT22;19182;41.820;12.808;2023-02-19T07:56:10;10.30;99.90
32839;DHT22;19182;41.820;12.808;2023-02-19T07:58:37;10.50;99.90
32839;DHT22;19182;41.820;12.808;2023-02-19T08:01:22;10.60;99.90
32839;DHT22;19182;41.820;12.808;2023-02-19T08:04:10;10.50;99.90
32839;DHT22;19182;41.820;12.808;2023-02-19T08:06:37;10.70;99.90
32839;DHT22;19182;41.820;12.808;2023-02-19T08:09:04;10.90;99.90
32839;DHT22;19182;41.820;12.808;2023-02-19T08:11:30;10.80;99.90
32839;DHT22;19182;41.820;12.808;2023-02-19T08:14:14;10.90;99.90
32839;DHT22;19182;41.820;12.808;2023-02-19T08:16:47;11.10;99.90
32839;DHT22;19182;41.820;12.808;2023-02-19T08:19:12;11.30;99.90
32839;DHT22;19182;41.820;12.808;2023-02-19T08:21:39;11.40;99.90
32839;DHT22;19182;41.820;12.808;2023-02-19T08:24:05;11.60;99.90
32839;DHT22;19182;41.820;12.808;2023-02-19T08:26:32;11.70;99.90
32839;DHT22;19182;41.820;12.808;2023-02-19T08:28:59;11.80;99.90
32839;DHT22;19182;41.820;12.808;2023-02-19T08:31:25;12.00;99.90
32839;DHT22;19182;41.820;12.808;2023-02-19T08:33:51;12.10;99.90
32839;DHT22;19182;41.820;12.808;2023-02-19T08:36:17;12.20;99.90
32839;DHT22;19182;41.820;12.808;2023-02-19T08:38:43;12.30;99.90
32839;DHT22;19182;41.820;12.808;2023-02-19T08:41:11;12.40;99.90
32839;DHT22;19182;41.820;12.808;2023-02-19T08:43:37;12.50;99.90
32839;DHT22;19182;41.820;12.808;2023-02-19T08:46:05;12.70;99.90
32839;DHT22;19182;41.820;12.808;2023-02-19T08:48:32;12.70;99.90
32839;DHT22;19182;41.820;12.808;2023-02-19T08:51:00;12.80;99.90
32839;DHT22;19182;41.820;12.808;2023-02-19T08:53:28;13.00;99.90
32839;DHT22;19182;41.820;12.808;2023-02-19T08:55:55;13.00;99.90
32839;DHT22;19182;41.820;12.808;2023-02-19T08:58:21;13.00;99.90
32839;DHT22;19182;41.820;12.808;2023-02-19T09:00:48;13.10;99.90
32839;DHT22;19182;41.820;12.808;2023-02-19T09:03:13;13.10;99.90
32839;DHT22;19182;41.820;12.808;2023-02-19T09:05:39;13.20;99.90
32839;DHT22;19182;41.820;12.808;2023-02-19T09:08:06;13.30;99.90
32839;DHT22;19182;41.820;12.808;2023-02-19T09:10:32;13.40;99.90
32839;DHT22;19182;41.820;12.808;2023-02-19T09:12:57;13.70;99.90
32839;DHT22;19182;41.820;12.808;2023-02-19T09:15:23;13.80;99.90
32839;DHT22;19182;41.820;12.808;2023-02-19T09:17:52;13.90;99.90
32839;DHT22;19182;41.820;12.808;2023-02-19T09:20:19;13.90;99.90
32839;DHT22;19182;41.820;12.808;2023-02-19T09:22:45;14.10;99.90
32839;DHT22;19182;41.820;12.808;2023-02-19T09:25:11;15.90;99.90
32839;DHT22;19182;41.820;12.808;2023-02-19T09:27:38;19.10;99.90
32839;DHT22;19182;41.820;12.808;2023-02-19T09:30:05;21.70;99.90
32839;DHT22;19182;41.820;12.808;2023-02-19T09:32:31;24.10;99.90
32839;DHT22;19182;41.820;12.808;2023-02-19T09:34:58;25.40;99.90
32839;DHT22;19182;41.820;12.808;2023-02-19T09:37:27;25.40;99.90
32839;DHT22;19182;41.820;12.808;2023-02-19T09:39:53;26.80;96.20
32839;DHT22;19182;41.820;12.808;2023-02-19T09:42:39;26.70;94.40
32839;DHT22;19182;41.820;12.808;2023-02-19T09:45:09;28.40;91.10
32839;DHT22;19182;41.820;12.808;2023-02-19T09:47:39;28.60;90.20
32839;DHT22;19182;41.820;12.808;2023-02-19T09:50:10;29.50;84.90
32839;DHT22;19182;41.820;12.808;2023-02-19T09:52:52;29.00;83.60
32839;DHT22;19182;41.820;12.808;2023-02-19T09:55:35;30.40;80.00
32839;DHT22;19182;41.820;12.808;2023-02-19T09:58:25;30.10;78.20
32839;DHT22;19182;41.820;12.808;2023-02-19T10:00:54;30.70;72.80
32839;DHT22;19182;41.820;12.808;2023-02-19T10:03:32;30.90;73.20
32839;DHT22;19182;41.820;12.808;2023-02-19T10:06:04;30.80;72.20
32839;DHT22;19182;41.820;12.808;2023-02-19T10:08:33;30.80;70.00
32839;DHT22;19182;41.820;12.808;2023-02-19T10:11:05;30.10;70.00
32839;DHT22;19182;41.820;12.808;2023-02-19T10:16:28;28.40;74.70
32839;DHT22;19182;41.820;12.808;2023-02-19T10:18:54;28.70;72.60
32839;DHT22;19182;41.820;12.808;2023-02-19T10:21:23;28.40;73.90
32839;DHT22;19182;41.820;12.808;2023-02-19T10:23:58;28.80;72.50
32839;DHT22;19182;41.820;12.808;2023-02-19T10:26:25;29.10;71.90
32839;DHT22;19182;41.820;12.808;2023-02-19T10:28:52;28.20;73.50
32839;DHT22;19182;41.820;12.808;2023-02-19T10:31:22;27.30;75.30
32839;DHT22;19182;41.820;12.808;2023-02-19T10:33:53;26.30;78.60
32839;DHT22;19182;41.820;12.808;2023-02-19T10:36:40;25.40;82.10
32839;DHT22;19182;41.820;12.808;2023-02-19T10:41:52;26.20;81.80
32839;DHT22;19182;41.820;12.808;2023-02-19T10:44:29;25.80;81.60
32839;DHT22;19182;41.820;12.808;2023-02-19T10:46:59;27.30;81.10
32839;DHT22;19182;41.820;12.808;2023-02-19T10:49:34;28.80;76.50
32839;DHT22;19182;41.820;12.808;2023-02-19T10:52:09;29.90;74.20
32839;DHT22;19182;41.820;12.808;2023-02-19T10:54:43;30.70;71.40
32839;DHT22;19182;41.820;12.808;2023-02-19T11:00:17;29.60;72.20
32839;DHT22;19182;41.820;12.808;2023-02-19T11:02:44;29.10;73.40
32839;DHT22;19182;41.820;12.808;2023-02-19T11:07:54;26.50;77.00
32839;DHT22;19182;41.820;12.808;2023-02-19T11:10:29;24.80;81.70
32839;DHT22;19182;41.820;12.808;2023-02-19T11:13:00;23.40;88.60
32839;DHT22;19182;41.820;12.808;2023-02-19T11:15:32;22.70;89.90
32839;DHT22;19182;41.820;12.808;2023-02-19T11:20:50;21.80;92.80
32839;DHT22;19182;41.820;12.808;2023-02-19T11:23:37;22.00;92.60
32839;DHT22;19182;41.820;12.808;2023-02-19T11:26:21;22.10;92.90
32839;DHT22;19182;41.820;12.808;2023-02-19T11:28:55;22.10;93.80
32839;DHT22;19182;41.820;12.808;2023-02-19T11:33:59;21.40;96.00
32839;DHT22;19182;41.820;12.808;2023-02-19T11:36:36;21.20;96.50
32839;DHT22;19182;41.820;12.808;2023-02-19T12:08:08;19.40;99.90
32839;DHT22;19182;41.820;12.808;2023-02-19T12:38:29;17.40;99.90
32839;DHT22;19182;41.820;12.808;2023-02-19T12:46:51;17.60;99.90
32839;DHT22;19182;41.820;12.808;2023-02-19T12:49:30;17.60;99.90
32839;DHT22;19182;41.820;12.808;2023-02-19T12:52:10;17.80;99.90
32839;DHT22;19182;41.820;12.808;2023-02-19T12:54:45;17.90;99.90
32839;DHT22;19182;41.820;12.808;2023-02-19T12:57:16;17.90;99.90
32839;DHT22;19182;41.820;12.808;2023-02-19T12:59:58;17.70;99.90
32839;DHT22;19182;41.820;12.808;2023-02-19T13:04:57;17.10;99.90
32839;DHT22;19182;41.820;12.808;2023-02-19T13:07:43;16.80;99.90
32839;DHT22;19182;41.820;12.808;2023-02-19T13:10:54;16.60;99.90
32839;DHT22;19182;41.820;12.808;2023-02-19T13:14:03;16.70;99.90
32839;DHT22;19182;41.820;12.808;2023-02-19T13:16:28;16.80;99.90
32839;DHT22;19182;41.820;12.808;2023-02-19T13:19:04;16.60;99.90
32839;DHT22;19182;41.820;12.808;2023-02-19T13:21:33;16.50;99.90
32839;DHT22;19182;41.820;12.808;2023-02-19T13:24:29;16.40;99.90
32839;DHT22;19182;41.820;12.808;2023-02-19T13:30:00;16.20;99.90
32839;DHT22;19182;41.820;12.808;2023-02-19T13:37:47;16.20;99.90
32839;DHT22;19182;41.820;12.808;2023-02-19T13:40:52;16.30;99.90
32839;DHT22;19182;41.820;12.808;2023-02-19T13:43:38;16.40;99.90
32839;DHT22;19182;41.820;12.808;2023-02-19T13:46:07;16.40;99.90
32839;DHT22;19182;41.820;12.808;2023-02-19T13:48:35;16.30;99.90
32839;DHT22;19182;41.820;12.808;2023-02-19T14:04:49;15.20;99.90
32839;DHT22;19182;41.820;12.808;2023-02-19T14:09:47;14.80;99.90
32839;DHT22;19182;41.820;12.808;2023-02-19T14:17:56;14.60;99.90
32839;DHT22;19182;41.820;12.808;2023-02-19T14:20:43;14.60;99.90
32839;DHT22;19182;41.820;12.808;2023-02-19T14:23:22;14.50;99.90
32839;DHT22;19182;41.820;12.808;2023-02-19T14:25:57;14.50;99.90
32839;DHT22;19182;41.820;12.808;2023-02-19T14:28:27;14.40;99.90
32839;DHT22;19182;41.820;12.808;2023-02-19T14:33:25;14.30;99.90
32839;DHT22;19182;41.820;12.808;2023-02-19T14:35:59;14.30;99.90
32839;DHT22;19182;41.820;12.808;2023-02-19T14:38:38;14.30;99.90
32839;DHT22;19182;41.820;12.808;2023-02-19T14:41:10;14.20;99.90
32839;DHT22;19182;41.820;12.808;2023-02-19T14:43:36;14.10;99.90
32839;DHT22;19182;41.820;12.808;2023-02-19T14:46:08;14.10;99.90
32839;DHT22;19182;41.820;12.808;2023-02-19T14:48:42;14.10;99.90
32839;DHT22;19182;41.820;12.808;2023-02-19T14:54:00;14.00;99.90
32839;DHT22;19182;41.820;12.808;2023-02-19T14:56:32;13.90;99.90
32839;DHT22;19182;41.820;12.808;2023-02-19T14:59:26;13.90;99.90
32839;DHT22;19182;41.820;12.808;2023-02-19T15:02:01;13.90;99.90
32839;DHT22;19182;41.820;12.808;2023-02-19T15:04:34;13.90;99.90
32839;DHT22;19182;41.820;12.808;2023-02-19T15:07:02;13.80;99.90
32839;DHT22;19182;41.820;12.808;2023-02-19T15:09:34;13.70;99.90
32839;DHT22;19182;41.820;12.808;2023-02-19T15:12:01;13.70;99.90
32839;DHT22;19182;41.820;12.808;2023-02-19T15:14:29;13.60;99.90
32839;DHT22;19182;41.820;12.808;2023-02-19T15:17:00;13.60;99.90
32839;DHT22;19182;41.820;12.808;2023-02-19T15:19:30;13.50;99.90
32839;DHT22;19182;41.820;12.808;2023-02-19T15:21:57;13.50;99.90
32839;DHT22;19182;41.820;12.808;2023-02-19T15:24:23;13.50;99.90
32839;DHT22;19182;41.820;12.808;2023-02-19T15:26:51;13.50;99.90
32839;DHT22;19182;41.820;12.808;2023-02-19T15:29:23;13.50;99.90
32839;DHT22;19182;41.820;12.808;2023-02-19T15:31:52;13.50;99.90
32839;DHT22;19182;41.820;12.808;2023-02-19T15:34:30;13.50;99.90
32839;DHT22;19182;41.820;12.808;2023-02-19T15:37:08;13.50;99.90
32839;DHT22;19182;41.820;12.808;2023-02-19T15:39:45;13.50;99.90
32839;DHT22;19182;41.820;12.808;2023-02-19T15:42:32;16.40;99.90
32839;DHT22;19182;41.820;12.808;2023-02-19T15:50:33;13.50;99.90
32839;DHT22;19182;41.820;12.808;2023-02-19T15:53:29;13.50;99.90
32839;DHT22;19182;41.820;12.808;2023-02-19T15:56:05;13.50;99.90
32839;DHT22;19182;41.820;12.808;2023-02-19T15:58:49;13.40;99.90
32839;DHT22;19182;41.820;12.808;2023-02-19T16:01:27;13.50;99.90
32839;DHT22;19182;41.820;12.808;2023-02-19T16:03:55;13.50;99.90
32839;DHT22;19182;41.820;12.808;2023-02-19T16:06:23;13.50;99.90
32839;DHT22;19182;41.820;12.808;2023-02-19T16:09:01;13.40;99.90
32839;DHT22;19182;41.820;12.808;2023-02-19T16:19:58;13.40;99.90
32839;DHT22;19182;41.820;12.808;2023-02-19T16:22:28;13.40;99.90
32839;DHT22;19182;41.820;12.808;2023-02-19T16:24:56;13.30;99.90
32839;DHT22;19182;41.820;12.808;2023-02-19T16:27:35;13.30;99.90
32839;DHT22;19182;41.820;12.808;2023-02-19T16:30:22;13.30;99.90
32839;DHT22;19182;41.820;12.808;2023-02-19T16:33:19;13.30;99.90
32839;DHT22;19182;41.820;12.808;2023-02-19T16:35:45;13.20;99.90
32839;DHT22;19182;41.820;12.808;2023-02-19T16:38:15;13.20;99.90
32839;DHT22;19182;41.820;12.808;2023-02-19T16:45:42;13.10;99.90
32839;DHT22;19182;41.820;12.808;2023-02-19T16:48:10;13.10;99.90
32839;DHT22;19182;41.820;12.808;2023-02-19T16:50:39;13.10;99.90
32839;DHT22;19182;41.820;12.808;2023-02-19T16:53:06;13.10;99.90
32839;DHT22;19182;41.820;12.808;2023-02-19T16:55:33;13.10;99.90
32839;DHT22;19182;41.820;12.808;2023-02-19T16:58:00;13.10;99.90
32839;DHT22;19182;41.820;12.808;2023-02-19T17:00:29;13.10;99.90
32839;DHT22;19182;41.820;12.808;2023-02-19T17:03:01;13.20;99.90
32839;DHT22;19182;41.820;12.808;2023-02-19T17:05:33;13.20;99.90
32839;DHT22;19182;41.820;12.808;2023-02-19T17:08:00;13.10;99.90
32839;DHT22;19182;41.820;12.808;2023-02-19T17:10:27;13.10;99.90
32839;DHT22;19182;41.820;12.808;2023-02-19T17:12:55;13.10;99.90
32839;DHT22;19182;41.820;12.808;2023-02-19T17:15:21;13.00;99.90
32839;DHT22;19182;41.820;12.808;2023-02-19T17:17:47;13.00;99.90
32839;DHT22;19182;41.820;12.808;2023-02-19T17:20:20;13.00;99.90
32839;DHT22;19182;41.820;12.808;2023-02-19T17:22:46;13.00;99.90
32839;DHT22;19182;41.820;12.808;2023-02-19T17:25:12;13.10;99.90
32839;DHT22;19182;41.820;12.808;2023-02-19T17:27:39;13.00;99.90
32839;DHT22;19182;41.820;12.808;2023-02-19T17:30:22;13.00;99.90
32839;DHT22;19182;41.820;12.808;2023-02-19T17:32:49;13.00;99.90
32839;DHT22;19182;41.820;12.808;2023-02-19T17:35:16;13.10;99.90
32839;DHT22;19182;41.820;12.808;2023-02-19T17:37:42;13.10;99.90
32839;DHT22;19182;41.820;12.808;2023-02-19T17:40:29;13.00;99.90
32839;DHT22;19182;41.820;12.808;2023-02-19T17:42:56;13.00;99.90
32839;DHT22;19182;41.820;12.808;2023-02-19T17:45:22;12.90;99.90
32839;DHT22;19182;41.820;12.808;2023-02-19T17:47:49;12.90;99.90
32839;DHT22;19182;41.820;12.808;2023-02-19T17:50:21;12.90;99.90
32839;DHT22;19182;41.820;12.808;2023-02-19T17:52:48;12.90;99.90
32839;DHT22;19182;41.820;12.808;2023-02-19T17:55:15;12.80;99.90
32839;DHT22;19182;41.820;12.808;2023-02-19T17:57:43;12.80;99.90
32839;DHT22;19182;41.820;12.808;2023-02-19T18:00:12;12.70;99.90
32839;DHT22;19182;41.820;12.808;2023-02-19T18:02:38;12.60;99.90
32839;DHT22;19182;41.820;12.808;2023-02-19T18:05:04;12.60;99.90
32839;DHT22;19182;41.820;12.808;2023-02-19T18:07:30;12.60;99.90
32839;DHT22;19182;41.820;12.808;2023-02-19T18:09:56;12.60;99.90
32839;DHT22;19182;41.820;12.808;2023-02-19T18:12:23;12.50;99.90
32839;DHT22;19182;41.820;12.808;2023-02-19T18:14:51;12.50;99.90
32839;DHT22;19182;41.820;12.808;2023-02-19T18:17:39;12.60;99.90
32839;DHT22;19182;41.820;12.808;2023-02-19T18:20:06;12.50;99.90
32839;DHT22;19182;41.820;12.808;2023-02-19T18:22:32;12.50;99.90
32839;DHT22;19182;41.820;12.808;2023-02-19T18:24:59;12.40;99.90
32839;DHT22;19182;41.820;12.808;2023-02-19T18:27:25;12.40;99.90
32839;DHT22;19182;41.820;12.808;2023-02-19T18:29:52;12.40;99.90
32839;DHT22;19182;41.820;12.808;2023-02-19T18:32:19;12.40;99.90